sensor_id;sensor_type;location;lat;lon;timestamp;P1;durP1;ratioP1;P2;durP2;ratioP2
11957;SDS011;6039;52.576;13.348;2024-02-23T00:01:35;1.70;;;1.03;;
11957;SDS011;6039;52.576;13.348;2024-02-23T00:06:41;1.90;;;1.00;;
11957;SDS011;6039;52.576;13.348;2024-02-23T00:11:45;1.37;;;0.80;;
11957;SDS011;6039;52.576;13.348;2024-02-23T00:16:49;0.97;;;0.87;;
11957;SDS011;6039;52.576;13.348;2024-02-23T00:21:56;0.80;;;0.70;;
11957;SDS011;6039;52.576;13.348;2024-02-23T00:27:00;1.23;;;0.93;;
11957;SDS011;6039;52.576;13.348;2024-02-23T00:32:04;1.50;;;0.80;;
11957;SDS011;6039;52.576;13.348;2024-02-23T00:37:11;1.00;;;0.87;;
11957;SDS011;6039;52.576;13.348;2024-02-23T00:42:15;1.60;;;0.97;;
11957;SDS011;6039;52.576;13.348;2024-02-23T00:47:20;1.13;;;1.00;;
11957;SDS011;6039;52.576;13.348;2024-02-23T00:52:27;0.97;;;0.80;;
11957;SDS011;6039;52.576;13.348;2024-02-23T00:57:32;1.00;;;0.90;;
11957;SDS011;6039;52.576;13.348;2024-02-23T01:02:36;1.23;;;1.03;;
11957;SDS011;6039;52.576;13.348;2024-02-23T01:07:43;1.10;;;1.00;;
11957;SDS011;6039;52.576;13.348;2024-02-23T01:12:48;1.30;;;0.90;;
11957;SDS011;6039;52.576;13.348;2024-02-23T01:17:52;1.13;;;0.90;;
11957;SDS011;6039;52.576;13.348;2024-02-23T01:22:58;1.40;;;1.00;;
11957;SDS011;6039;52.576;13.348;2024-02-23T01:28:03;1.00;;;0.80;;
11957;SDS011;6039;52.576;13.348;2024-02-23T01:33:07;1.00;;;0.90;;
11957;SDS011;6039;52.576;13.348;2024-02-23T01:38:13;1.63;;;1.23;;
11957;SDS011;6039;52.576;13.348;2024-02-23T01:43:20;1.00;;;0.90;;
11957;SDS011;6039;52.576;13.348;2024-02-23T01:48:24;1.00;;;0.90;;
11957;SDS011;6039;52.576;13.348;2024-02-23T01:53:32;4.00;;;1.10;;
11957;SDS011;6039;52.576;13.348;2024-02-23T01:58:36;1.40;;;0.90;;
11957;SDS011;6039;52.576;13.348;2024-02-23T02:03:43;0.80;;;0.80;;
11957;SDS011;6039;52.576;13.348;2024-02-23T02:08:50;1.13;;;0.93;;
11957;SDS011;6039;52.576;13.348;2024-02-23T02:13:54;1.00;;;0.90;;
11957;SDS011;6039;52.576;13.348;2024-02-23T02:18:58;1.80;;;0.83;;
11957;SDS011;6039;52.576;13.348;2024-02-23T02:24:05;1.50;;;0.80;;
11957;SDS011;6039;52.576;13.348;2024-02-23T02:29:10;1.07;;;0.70;;
11957;SDS011;6039;52.576;13.348;2024-02-23T02:34:14;1.70;;;0.80;;
11957;SDS011;6039;52.576;13.348;2024-02-23T02:39:21;0.50;;;0.50;;
11957;SDS011;6039;52.576;13.348;2024-02-23T02:44:25;1.90;;;0.80;;
11957;SDS011;6039;52.576;13.348;2024-02-23T02:49:30;1.33;;;0.50;;
11957;SDS011;6039;52.576;13.348;2024-02-23T02:54:37;0.90;;;0.73;;
11957;SDS011;6039;52.576;13.348;2024-02-23T02:59:41;0.50;;;0.50;;
11957;SDS011;6039;52.576;13.348;2024-02-23T03:04:48;1.90;;;0.60;;
11957;SDS011;6039;52.576;13.348;2024-02-23T03:09:57;1.00;;;0.50;;
11957;SDS011;6039;52.576;13.348;2024-02-23T03:15:02;0.80;;;0.53;;
11957;SDS011;6039;52.576;13.348;2024-02-23T03:20:07;0.90;;;0.70;;
11957;SDS011;6039;52.576;13.348;2024-02-23T03:25:14;0.47;;;0.40;;
11957;SDS011;6039;52.576;13.348;2024-02-23T03:30:18;1.27;;;0.60;;
11957;SDS011;6039;52.576;13.348;2024-02-23T03:35:22;0.50;;;0.50;;
11957;SDS011;6039;52.576;13.348;2024-02-23T03:40:29;1.33;;;0.70;;
11957;SDS011;6039;52.576;13.348;2024-02-23T03:45:34;0.50;;;0.47;;
11957;SDS011;6039;52.576;13.348;2024-02-23T03:50:38;1.07;;;0.57;;
11957;SDS011;6039;52.576;13.348;2024-02-23T03:55:44;1.27;;;0.70;;
11957;SDS011;6039;52.576;13.348;2024-02-23T04:00:48;1.37;;;0.93;;
11957;SDS011;6039;52.576;13.348;2024-02-23T04:05:53;0.77;;;0.50;;
11957;SDS011;6039;52.576;13.348;2024-02-23T04:10:59;1.20;;;0.60;;
11957;SDS011;6039;52.576;13.348;2024-02-23T04:16:03;0.73;;;0.70;;
11957;SDS011;6039;52.576;13.348;2024-02-23T04:21:08;1.73;;;0.73;;
11957;SDS011;6039;52.576;13.348;2024-02-23T04:26:14;1.10;;;0.63;;
11957;SDS011;6039;52.576;13.348;2024-02-23T04:31:18;0.53;;;0.50;;
11957;SDS011;6039;52.576;13.348;2024-02-23T04:36:22;0.73;;;0.47;;
11957;SDS011;6039;52.576;13.348;2024-02-23T04:41:29;1.10;;;0.60;;
11957;SDS011;6039;52.576;13.348;2024-02-23T04:46:33;1.17;;;0.50;;
11957;SDS011;6039;52.576;13.348;2024-02-23T04:51:37;0.83;;;0.60;;
11957;SDS011;6039;52.576;13.348;2024-02-23T04:56:44;0.63;;;0.50;;
11957;SDS011;6039;52.576;13.348;2024-02-23T05:01:48;1.00;;;0.50;;
11957;SDS011;6039;52.576;13.348;2024-02-23T05:06:51;0.90;;;0.60;;
11957;SDS011;6039;52.576;13.348;2024-02-23T05:11:58;1.67;;;0.60;;
11957;SDS011;6039;52.576;13.348;2024-02-23T05:17:02;0.40;;;0.40;;
11957;SDS011;6039;52.576;13.348;2024-02-23T05:22:06;0.43;;;0.43;;
11957;SDS011;6039;52.576;13.348;2024-02-23T05:27:13;0.40;;;0.40;;
11957;SDS011;6039;52.576;13.348;2024-02-23T05:32:17;0.60;;;0.60;;
11957;SDS011;6039;52.576;13.348;2024-02-23T05:37:21;0.60;;;0.47;;
11957;SDS011;6039;52.576;13.348;2024-02-23T05:42:27;0.50;;;0.50;;
11957;SDS011;6039;52.576;13.348;2024-02-23T05:47:31;0.30;;;0.30;;
11957;SDS011;6039;52.576;13.348;2024-02-23T05:52:35;0.70;;;0.60;;
11957;SDS011;6039;52.576;13.348;2024-02-23T05:57:42;0.30;;;0.30;;
11957;SDS011;6039;52.576;13.348;2024-02-23T06:02:46;0.60;;;0.60;;
11957;SDS011;6039;52.576;13.348;2024-02-23T06:07:50;0.80;;;0.70;;
11957;SDS011;6039;52.576;13.348;2024-02-23T06:12:57;0.50;;;0.50;;
11957;SDS011;6039;52.576;13.348;2024-02-23T06:18:01;2.37;;;0.70;;
11957;SDS011;6039;52.576;13.348;2024-02-23T06:23:05;0.80;;;0.50;;
11957;SDS011;6039;52.576;13.348;2024-02-23T06:28:11;1.00;;;0.67;;
11957;SDS011;6039;52.576;13.348;2024-02-23T06:33:15;1.10;;;0.90;;
11957;SDS011;6039;52.576;13.348;2024-02-23T06:38:19;0.77;;;0.63;;
11957;SDS011;6039;52.576;13.348;2024-02-23T06:43:26;0.90;;;0.80;;
11957;SDS011;6039;52.576;13.348;2024-02-23T06:48:30;0.60;;;0.60;;
11957;SDS011;6039;52.576;13.348;2024-02-23T06:53:34;0.80;;;0.73;;
11957;SDS011;6039;52.576;13.348;2024-02-23T06:58:41;0.90;;;0.80;;
11957;SDS011;6039;52.576;13.348;2024-02-23T07:03:45;0.80;;;0.80;;
11957;SDS011;6039;52.576;13.348;2024-02-23T07:08:51;1.00;;;0.90;;
11957;SDS011;6039;52.576;13.348;2024-02-23T07:13:57;1.90;;;0.90;;
11957;SDS011;6039;52.576;13.348;2024-02-23T07:19:01;0.90;;;0.70;;
11957;SDS011;6039;52.576;13.348;2024-02-23T07:24:05;0.80;;;0.70;;
11957;SDS011;6039;52.576;13.348;2024-02-23T07:29:12;0.70;;;0.70;;
11957;SDS011;6039;52.576;13.348;2024-02-23T07:34:16;1.73;;;0.90;;
11957;SDS011;6039;52.576;13.348;2024-02-23T07:39:21;1.33;;;0.80;;
11957;SDS011;6039;52.576;13.348;2024-02-23T07:44:27;0.70;;;0.70;;
11957;SDS011;6039;52.576;13.348;2024-02-23T07:49:31;0.70;;;0.70;;
11957;SDS011;6039;52.576;13.348;2024-02-23T07:54:35;0.60;;;0.60;;
11957;SDS011;6039;52.576;13.348;2024-02-23T07:59:41;1.63;;;1.00;;
11957;SDS011;6039;52.576;13.348;2024-02-23T08:04:45;1.67;;;0.83;;
11957;SDS011;6039;52.576;13.348;2024-02-23T08:09:50;0.97;;;0.80;;
11957;SDS011;6039;52.576;13.348;2024-02-23T08:14:57;1.57;;;0.90;;
11957;SDS011;6039;52.576;13.348;2024-02-23T08:20:01;0.73;;;0.70;;
11957;SDS011;6039;52.576;13.348;2024-02-23T08:25:05;0.70;;;0.70;;
11957;SDS011;6039;52.576;13.348;2024-02-23T08:30:13;1.00;;;0.77;;
11957;SDS011;6039;52.576;13.348;2024-02-23T08:35:17;1.30;;;0.90;;
11957;SDS011;6039;52.576;13.348;2024-02-23T08:40:21;0.50;;;0.50;;
11957;SDS011;6039;52.576;13.348;2024-02-23T08:45:28;0.70;;;0.60;;
11957;SDS011;6039;52.576;13.348;2024-02-23T08:50:32;0.60;;;0.57;;
11957;SDS011;6039;52.576;13.348;2024-02-23T08:55:38;0.50;;;0.50;;
11957;SDS011;6039;52.576;13.348;2024-02-23T09:00:44;0.50;;;0.50;;
11957;SDS011;6039;52.576;13.348;2024-02-23T09:05:49;1.53;;;0.80;;
11957;SDS011;6039;52.576;13.348;2024-02-23T09:10:53;0.60;;;0.53;;
11957;SDS011;6039;52.576;13.348;2024-02-23T09:15:59;0.53;;;0.53;;
11957;SDS011;6039;52.576;13.348;2024-02-23T09:21:03;0.43;;;0.43;;
11957;SDS011;6039;52.576;13.348;2024-02-23T09:26:10;0.50;;;0.50;;
11957;SDS011;6039;52.576;13.348;2024-02-23T09:31:17;0.50;;;0.50;;
11957;SDS011;6039;52.576;13.348;2024-02-23T09:36:21;0.50;;;0.50;;
11957;SDS011;6039;52.576;13.348;2024-02-23T09:41:25;0.60;;;0.40;;
11957;SDS011;6039;52.576;13.348;2024-02-23T09:46:44;3.80;;;0.60;;
11957;SDS011;6039;52.576;13.348;2024-02-23T09:51:48;1.03;;;0.60;;
11957;SDS011;6039;52.576;13.348;2024-02-23T09:56:52;0.80;;;0.60;;
11957;SDS011;6039;52.576;13.348;2024-02-23T10:01:59;0.33;;;0.33;;
11957;SDS011;6039;52.576;13.348;2024-02-23T10:07:03;0.77;;;0.60;;
11957;SDS011;6039;52.576;13.348;2024-02-23T10:12:07;0.57;;;0.50;;
11957;SDS011;6039;52.576;13.348;2024-02-23T10:17:14;0.50;;;0.50;;
11957;SDS011;6039;52.576;13.348;2024-02-23T10:22:18;1.33;;;0.57;;
11957;SDS011;6039;52.576;13.348;2024-02-23T10:27:25;1.03;;;0.50;;
11957;SDS011;6039;52.576;13.348;2024-02-23T10:32:31;0.50;;;0.50;;
11957;SDS011;6039;52.576;13.348;2024-02-23T10:37:36;0.77;;;0.40;;
11957;SDS011;6039;52.576;13.348;2024-02-23T10:42:39;0.60;;;0.57;;
11957;SDS011;6039;52.576;13.348;2024-02-23T10:47:50;1.13;;;0.60;;
11957;SDS011;6039;52.576;13.348;2024-02-23T10:52:54;0.57;;;0.50;;
11957;SDS011;6039;52.576;13.348;2024-02-23T10:57:59;0.50;;;0.50;;
11957;SDS011;6039;52.576;13.348;2024-02-23T11:03:07;0.70;;;0.50;;
11957;SDS011;6039;52.576;13.348;2024-02-23T11:08:11;1.97;;;0.70;;
11957;SDS011;6039;52.576;13.348;2024-02-23T11:13:16;2.47;;;0.50;;
11957;SDS011;6039;52.576;13.348;2024-02-23T11:18:25;1.27;;;0.67;;
11957;SDS011;6039;52.576;13.348;2024-02-23T11:23:41;1.00;;;0.40;;
11957;SDS011;6039;52.576;13.348;2024-02-23T11:28:47;0.60;;;0.50;;
11957;SDS011;6039;52.576;13.348;2024-02-23T11:33:56;0.50;;;0.40;;
11957;SDS011;6039;52.576;13.348;2024-02-23T11:39:00;1.17;;;0.50;;
11957;SDS011;6039;52.576;13.348;2024-02-23T11:44:05;0.63;;;0.50;;
11957;SDS011;6039;52.576;13.348;2024-02-23T11:49:12;1.10;;;0.50;;
11957;SDS011;6039;52.576;13.348;2024-02-23T11:54:16;1.13;;;0.50;;
11957;SDS011;6039;52.576;13.348;2024-02-23T11:59:21;1.30;;;0.70;;
11957;SDS011;6039;52.576;13.348;2024-02-23T12:04:29;1.53;;;0.70;;
11957;SDS011;6039;52.576;13.348;2024-02-23T12:09:33;1.07;;;0.70;;
11957;SDS011;6039;52.576;13.348;2024-02-23T12:14:37;0.77;;;0.57;;
11957;SDS011;6039;52.576;13.348;2024-02-23T12:19:44;0.70;;;0.50;;
11957;SDS011;6039;52.576;13.348;2024-02-23T12:24:49;0.63;;;0.53;;
11957;SDS011;6039;52.576;13.348;2024-02-23T12:29:53;4.27;;;0.53;;
11957;SDS011;6039;52.576;13.348;2024-02-23T12:35:00;1.50;;;0.80;;
11957;SDS011;6039;52.576;13.348;2024-02-23T12:40:04;2.23;;;0.60;;
11957;SDS011;6039;52.576;13.348;2024-02-23T12:45:09;1.23;;;0.60;;
11957;SDS011;6039;52.576;13.348;2024-02-23T12:50:16;2.20;;;0.70;;
11957;SDS011;6039;52.576;13.348;2024-02-23T12:55:20;1.07;;;0.60;;
11957;SDS011;6039;52.576;13.348;2024-02-23T13:00:24;0.60;;;0.50;;
11957;SDS011;6039;52.576;13.348;2024-02-23T13:05:30;0.83;;;0.60;;
11957;SDS011;6039;52.576;13.348;2024-02-23T13:10:34;0.93;;;0.70;;
11957;SDS011;6039;52.576;13.348;2024-02-23T13:15:38;2.40;;;0.70;;
11957;SDS011;6039;52.576;13.348;2024-02-23T13:20:44;1.27;;;0.77;;
11957;SDS011;6039;52.576;13.348;2024-02-23T13:25:49;0.83;;;0.70;;
11957;SDS011;6039;52.576;13.348;2024-02-23T13:30:53;2.57;;;0.80;;
11957;SDS011;6039;52.576;13.348;2024-02-23T13:36:00;0.90;;;0.60;;
11957;SDS011;6039;52.576;13.348;2024-02-23T13:41:03;1.87;;;0.87;;
11957;SDS011;6039;52.576;13.348;2024-02-23T13:46:07;1.93;;;1.07;;
11957;SDS011;6039;52.576;13.348;2024-02-23T13:51:14;1.50;;;0.80;;
11957;SDS011;6039;52.576;13.348;2024-02-23T13:56:18;0.80;;;0.80;;
11957;SDS011;6039;52.576;13.348;2024-02-23T14:01:22;1.10;;;0.90;;
11957;SDS011;6039;52.576;13.348;2024-02-23T14:06:28;2.80;;;0.70;;
11957;SDS011;6039;52.576;13.348;2024-02-23T14:11:33;1.60;;;0.90;;
11957;SDS011;6039;52.576;13.348;2024-02-23T14:16:37;1.20;;;0.70;;
11957;SDS011;6039;52.576;13.348;2024-02-23T14:21:43;1.80;;;0.60;;
11957;SDS011;6039;52.576;13.348;2024-02-23T14:26:48;1.73;;;0.70;;
11957;SDS011;6039;52.576;13.348;2024-02-23T14:31:52;2.00;;;0.90;;
11957;SDS011;6039;52.576;13.348;2024-02-23T14:36:59;0.60;;;0.60;;
11957;SDS011;6039;52.576;13.348;2024-02-23T14:42:03;1.30;;;0.60;;
11957;SDS011;6039;52.576;13.348;2024-02-23T14:47:08;0.70;;;0.70;;
11957;SDS011;6039;52.576;13.348;2024-02-23T14:52:15;1.07;;;0.67;;
11957;SDS011;6039;52.576;13.348;2024-02-23T14:57:19;2.43;;;0.87;;
11957;SDS011;6039;52.576;13.348;2024-02-23T15:02:23;2.20;;;0.80;;
11957;SDS011;6039;52.576;13.348;2024-02-23T15:07:29;2.80;;;0.90;;
11957;SDS011;6039;52.576;13.348;2024-02-23T15:12:33;1.07;;;0.70;;
11957;SDS011;6039;52.576;13.348;2024-02-23T15:17:37;1.03;;;0.80;;
11957;SDS011;6039;52.576;13.348;2024-02-23T15:22:44;1.70;;;0.63;;
11957;SDS011;6039;52.576;13.348;2024-02-23T15:27:49;0.80;;;0.80;;
11957;SDS011;6039;52.576;13.348;2024-02-23T15:32:57;1.70;;;0.93;;
11957;SDS011;6039;52.576;13.348;2024-02-23T15:38:04;4.37;;;1.00;;
11957;SDS011;6039;52.576;13.348;2024-02-23T15:43:08;1.43;;;0.80;;
11957;SDS011;6039;52.576;13.348;2024-02-23T15:48:11;1.73;;;0.80;;
11957;SDS011;6039;52.576;13.348;2024-02-23T15:53:18;1.93;;;0.80;;
11957;SDS011;6039;52.576;13.348;2024-02-23T15:58:22;3.90;;;0.90;;
11957;SDS011;6039;52.576;13.348;2024-02-23T16:03:26;1.13;;;0.93;;
11957;SDS011;6039;52.576;13.348;2024-02-23T16:08:43;1.33;;;0.83;;
11957;SDS011;6039;52.576;13.348;2024-02-23T16:13:48;2.13;;;0.90;;
11957;SDS011;6039;52.576;13.348;2024-02-23T16:18:52;2.07;;;1.17;;
11957;SDS011;6039;52.576;13.348;2024-02-23T16:23:59;1.27;;;0.90;;
11957;SDS011;6039;52.576;13.348;2024-02-23T16:29:04;1.43;;;0.97;;
11957;SDS011;6039;52.576;13.348;2024-02-23T16:34:08;2.17;;;1.03;;
11957;SDS011;6039;52.576;13.348;2024-02-23T16:39:15;2.73;;;1.30;;
11957;SDS011;6039;52.576;13.348;2024-02-23T16:44:19;1.63;;;0.83;;
11957;SDS011;6039;52.576;13.348;2024-02-23T16:49:23;2.17;;;1.03;;
11957;SDS011;6039;52.576;13.348;2024-02-23T16:54:30;3.00;;;1.07;;
11957;SDS011;6039;52.576;13.348;2024-02-23T16:59:34;1.80;;;1.20;;
11957;SDS011;6039;52.576;13.348;2024-02-23T17:04:37;2.37;;;1.20;;
11957;SDS011;6039;52.576;13.348;2024-02-23T17:09:44;1.40;;;1.07;;
11957;SDS011;6039;52.576;13.348;2024-02-23T17:14:48;1.40;;;1.10;;
11957;SDS011;6039;52.576;13.348;2024-02-23T17:19:52;2.87;;;1.43;;
11957;SDS011;6039;52.576;13.348;2024-02-23T17:24:59;2.10;;;1.07;;
11957;SDS011;6039;52.576;13.348;2024-02-23T17:30:04;3.40;;;1.13;;
11957;SDS011;6039;52.576;13.348;2024-02-23T17:35:10;3.10;;;1.13;;
11957;SDS011;6039;52.576;13.348;2024-02-23T17:40:17;2.43;;;1.27;;
11957;SDS011;6039;52.576;13.348;2024-02-23T17:45:21;2.47;;;1.17;;
11957;SDS011;6039;52.576;13.348;2024-02-23T17:50:27;3.17;;;1.30;;
11957;SDS011;6039;52.576;13.348;2024-02-23T17:55:34;1.67;;;1.30;;
11957;SDS011;6039;52.576;13.348;2024-02-23T18:00:38;1.77;;;1.13;;
11957;SDS011;6039;52.576;13.348;2024-02-23T18:05:42;2.90;;;1.40;;
11957;SDS011;6039;52.576;13.348;2024-02-23T18:10:49;4.07;;;1.70;;
11957;SDS011;6039;52.576;13.348;2024-02-23T18:15:53;3.33;;;1.63;;
11957;SDS011;6039;52.576;13.348;2024-02-23T18:20:57;3.10;;;1.30;;
11957;SDS011;6039;52.576;13.348;2024-02-23T18:26:03;2.40;;;1.40;;
11957;SDS011;6039;52.576;13.348;2024-02-23T18:31:07;4.13;;;1.80;;
11957;SDS011;6039;52.576;13.348;2024-02-23T18:36:11;1.93;;;1.50;;
11957;SDS011;6039;52.576;13.348;2024-02-23T18:41:18;5.07;;;1.90;;
11957;SDS011;6039;52.576;13.348;2024-02-23T18:46:22;3.77;;;1.90;;
11957;SDS011;6039;52.576;13.348;2024-02-23T18:51:26;3.37;;;1.77;;
11957;SDS011;6039;52.576;13.348;2024-02-23T18:56:34;4.63;;;1.90;;
11957;SDS011;6039;52.576;13.348;2024-02-23T19:01:38;4.07;;;1.80;;
11957;SDS011;6039;52.576;13.348;2024-02-23T19:06:43;3.80;;;1.83;;
11957;SDS011;6039;52.576;13.348;2024-02-23T19:11:50;4.30;;;1.77;;
11957;SDS011;6039;52.576;13.348;2024-02-23T19:16:54;3.93;;;1.60;;
11957;SDS011;6039;52.576;13.348;2024-02-23T19:21:58;4.17;;;1.93;;
11957;SDS011;6039;52.576;13.348;2024-02-23T19:27:05;2.80;;;1.87;;
11957;SDS011;6039;52.576;13.348;2024-02-23T19:32:09;5.87;;;2.27;;
11957;SDS011;6039;52.576;13.348;2024-02-23T19:37:13;9.33;;;2.43;;
11957;SDS011;6039;52.576;13.348;2024-02-23T19:42:20;4.17;;;2.37;;
11957;SDS011;6039;52.576;13.348;2024-02-23T19:47:23;5.97;;;2.70;;
11957;SDS011;6039;52.576;13.348;2024-02-23T19:52:29;4.57;;;2.30;;
11957;SDS011;6039;52.576;13.348;2024-02-23T19:57:35;6.37;;;2.13;;
11957;SDS011;6039;52.576;13.348;2024-02-23T20:02:39;2.83;;;2.03;;
11957;SDS011;6039;52.576;13.348;2024-02-23T20:07:43;3.70;;;2.30;;
11957;SDS011;6039;52.576;13.348;2024-02-23T20:12:50;3.20;;;2.07;;
11957;SDS011;6039;52.576;13.348;2024-02-23T20:17:54;4.00;;;1.93;;
11957;SDS011;6039;52.576;13.348;2024-02-23T20:22:59;4.23;;;2.07;;
11957;SDS011;6039;52.576;13.348;2024-02-23T20:28:06;3.13;;;1.90;;
11957;SDS011;6039;52.576;13.348;2024-02-23T20:33:10;2.90;;;1.80;;
11957;SDS011;6039;52.576;13.348;2024-02-23T20:38:14;3.70;;;1.97;;
11957;SDS011;6039;52.576;13.348;2024-02-23T20:43:21;2.77;;;1.70;;
11957;SDS011;6039;52.576;13.348;2024-02-23T20:48:26;3.63;;;2.17;;
11957;SDS011;6039;52.576;13.348;2024-02-23T20:53:30;5.83;;;2.20;;
11957;SDS011;6039;52.576;13.348;2024-02-23T20:58:36;4.87;;;1.97;;
11957;SDS011;6039;52.576;13.348;2024-02-23T21:03:41;2.83;;;1.60;;
11957;SDS011;6039;52.576;13.348;2024-02-23T21:08:45;3.50;;;2.00;;
11957;SDS011;6039;52.576;13.348;2024-02-23T21:13:51;3.00;;;2.10;;
11957;SDS011;6039;52.576;13.348;2024-02-23T21:18:56;7.53;;;2.30;;
11957;SDS011;6039;52.576;13.348;2024-02-23T21:23:59;3.67;;;2.00;;
11957;SDS011;6039;52.576;13.348;2024-02-23T21:29:07;3.30;;;2.03;;
11957;SDS011;6039;52.576;13.348;2024-02-23T21:34:11;3.43;;;2.03;;
11957;SDS011;6039;52.576;13.348;2024-02-23T21:39:16;2.97;;;1.80;;
11957;SDS011;6039;52.576;13.348;2024-02-23T21:44:22;3.83;;;2.13;;
11957;SDS011;6039;52.576;13.348;2024-02-23T21:49:26;4.13;;;2.30;;
11957;SDS011;6039;52.576;13.348;2024-02-23T21:54:30;4.73;;;2.53;;
11957;SDS011;6039;52.576;13.348;2024-02-23T21:59:37;7.13;;;2.50;;
11957;SDS011;6039;52.576;13.348;2024-02-23T22:04:41;3.57;;;2.27;;
11957;SDS011;6039;52.576;13.348;2024-02-23T22:09:46;3.73;;;2.07;;
11957;SDS011;6039;52.576;13.348;2024-02-23T22:14:58;2.50;;;2.07;;
11957;SDS011;6039;52.576;13.348;2024-02-23T22:20:03;4.27;;;2.30;;
11957;SDS011;6039;52.576;13.348;2024-02-23T22:25:08;6.90;;;2.30;;
11957;SDS011;6039;52.576;13.348;2024-02-23T22:30:15;4.10;;;2.30;;
11957;SDS011;6039;52.576;13.348;2024-02-23T22:35:19;4.57;;;2.47;;
11957;SDS011;6039;52.576;13.348;2024-02-23T22:40:25;6.97;;;2.60;;
11957;SDS011;6039;52.576;13.348;2024-02-23T22:45:31;5.20;;;2.63;;
11957;SDS011;6039;52.576;13.348;2024-02-23T22:50:35;5.30;;;2.27;;
11957;SDS011;6039;52.576;13.348;2024-02-23T22:55:39;4.10;;;2.43;;
11957;SDS011;6039;52.576;13.348;2024-02-23T23:00:46;4.73;;;2.87;;
11957;SDS011;6039;52.576;13.348;2024-02-23T23:05:51;5.57;;;2.57;;
11957;SDS011;6039;52.576;13.348;2024-02-23T23:10:56;3.40;;;2.23;;
11957;SDS011;6039;52.576;13.348;2024-02-23T23:16:02;5.20;;;2.23;;
11957;SDS011;6039;52.576;13.348;2024-02-23T23:21:07;4.53;;;2.83;;
11957;SDS011;6039;52.576;13.348;2024-02-23T23:26:11;5.00;;;2.47;;
11957;SDS011;6039;52.576;13.348;2024-02-23T23:31:19;4.77;;;2.60;;
11957;SDS011;6039;52.576;13.348;2024-02-23T23:36:24;6.63;;;2.60;;
11957;SDS011;6039;52.576;13.348;2024-02-23T23:41:28;4.33;;;2.60;;
11957;SDS011;6039;52.576;13.348;2024-02-23T23:46:35;5.07;;;2.30;;
11957;SDS011;6039;52.576;13.348;2024-02-23T23:51:39;6.23;;;2.63;;
11957;SDS011;6039;52.576;13.348;2024-02-23T23:56:43;7.17;;;2.80;;
